aviador You're here:

KGWW Decoded Metar

GOLDSBORO/WAYNE in NC, USA
Report Time2017-09-24 12:05:00
UTC Time2017-09-24 12:16:32
Flight Rules mvfr MVFR
Wind020° at 03 kt
W.Decomp.*RWY 05: 2.8 kt HW 1.1 kt LCW
W.Rank020° ranks 4
Current wind is below 020° avg. (7.3)
Visibility8047 m
Phenomena:Mist
Clouds:N/A
CeilingNone
Temp20°C (ISA +5)
Dew Point20°C (100% RH)
QNH1019 hPa
Density Alt856 ft
Elevation135 ft
Report Wrong Elevation
Raw Report
METAR KGWW 241205Z AUTO 02003KT 5SM BR CLR 20/20 A3008 RMK AO2 T01960196=

Extra information for KGWW:More info

Metar Taf Metar & Taf Last 4 Metars F.Rules Stats Wind Profile Meteogram Temp Stats Airport Information Weather charts Add Link Nearby VenuesMetar ALERT Operation Metar Decoded Social comments

AIRNAV info for KGWW